createdAt,value
2023-01-28T00:00:55.707Z,95.60
2023-01-28T00:03:23.904Z,95.70
2023-01-28T00:05:53.741Z,94.40
2023-01-28T00:08:21.779Z,94.70
2023-01-28T00:10:49.815Z,94.50
2023-01-28T00:13:17.806Z,94.40
2023-01-28T00:15:45.877Z,95.40
2023-01-28T00:18:13.846Z,96.10
2023-01-28T00:20:41.846Z,96.80
2023-01-28T00:23:11.377Z,96.90
2023-01-28T00:25:39.205Z,96.70
2023-01-28T00:28:07.184Z,96.50
2023-01-28T00:30:37.040Z,96.60
2023-01-28T00:33:05.247Z,95.90
2023-01-28T00:35:33.257Z,95.50
2023-01-28T00:38:04.138Z,95.40
2023-01-28T00:40:33.545Z,95.10
2023-01-28T00:43:01.374Z,94.60
2023-01-28T00:45:29.707Z,94.00
2023-01-28T00:47:57.820Z,92.20
2023-01-28T00:50:25.835Z,91.40
2023-01-28T00:52:53.846Z,91.60
2023-01-28T00:55:21.858Z,91.40
2023-01-28T00:57:51.497Z,92.10
2023-01-28T01:00:21.081Z,92.30
2023-01-28T01:02:49.131Z,92.40
2023-01-28T01:05:17.687Z,92.00
2023-01-28T01:07:45.913Z,91.40
2023-01-28T01:10:16.889Z,91.20
2023-01-28T01:12:47.067Z,92.20
2023-01-28T01:15:17.861Z,91.40
2023-01-28T01:17:48.076Z,90.70
2023-01-28T01:20:17.928Z,91.20
2023-01-28T01:22:46.341Z,91.40
2023-01-28T01:25:16.504Z,91.30
2023-01-28T01:27:46.034Z,91.50
2023-01-28T01:30:16.596Z,91.40
2023-01-28T01:32:44.642Z,92.50
2023-01-28T01:35:13.104Z,93.00
2023-01-28T01:37:45.569Z,92.00
2023-01-28T01:40:13.974Z,92.40
2023-01-28T01:42:42.100Z,92.90
2023-01-28T01:45:15.586Z,93.20
2023-01-28T01:47:49.035Z,92.90
2023-01-28T01:50:25.176Z,92.00
2023-01-28T01:52:58.219Z,92.40
2023-01-28T01:55:28.764Z,92.10
2023-01-28T01:57:59.577Z,92.60
2023-01-28T02:00:27.607Z,92.10
2023-01-28T02:02:58.888Z,91.70
2023-01-28T02:05:27.557Z,91.50
2023-01-28T02:08:19.976Z,90.40
2023-01-28T02:10:50.204Z,90.30
2023-01-28T02:13:20.440Z,90.00
2023-01-28T02:15:49.527Z,89.70
2023-01-28T02:18:19.935Z,89.90
2023-01-28T02:21:01.079Z,89.30
2023-01-28T02:23:51.837Z,88.00
2023-01-28T02:26:36.074Z,87.10
2023-01-28T02:29:11.709Z,88.10
2023-01-28T02:31:45.182Z,89.70
2023-01-28T02:34:25.762Z,90.40
2023-01-28T02:36:58.911Z,90.60
2023-01-28T02:39:31.279Z,90.20
2023-01-28T02:42:04.411Z,90.90
2023-01-28T02:44:33.818Z,90.90
2023-01-28T02:47:19.288Z,91.20
2023-01-28T02:49:51.004Z,91.40
2023-01-28T02:52:53.410Z,90.50
2023-01-28T02:55:31.544Z,90.50
2023-01-28T02:58:07.158Z,89.00
2023-01-28T03:00:48.091Z,90.00
2023-01-28T03:03:21.700Z,90.60
2023-01-28T03:06:06.734Z,90.40
2023-01-28T03:08:57.519Z,90.60
2023-01-28T03:11:44.082Z,90.60
2023-01-28T03:14:31.085Z,92.00
2023-01-28T03:17:20.220Z,92.50
2023-01-28T03:20:06.596Z,91.40
2023-01-28T03:22:56.238Z,90.70
2023-01-28T03:25:45.374Z,90.50
2023-01-28T03:28:35.889Z,91.40
2023-01-28T03:31:25.895Z,90.60
2023-01-28T03:34:14.185Z,91.00
2023-01-28T03:36:48.471Z,90.20
2023-01-28T03:39:16.964Z,90.90
2023-01-28T03:41:56.586Z,91.20
2023-01-28T03:44:43.609Z,90.80
2023-01-28T03:47:12.335Z,91.80
2023-01-28T03:49:43.117Z,91.30
2023-01-28T03:52:11.967Z,91.40
2023-01-28T03:54:40.015Z,92.20
2023-01-28T03:57:08.196Z,92.90
2023-01-28T03:59:36.205Z,93.10
2023-01-28T04:02:05.436Z,93.40
2023-01-28T04:04:33.482Z,93.20
2023-01-28T04:07:02.863Z,93.10
2023-01-28T04:09:30.712Z,93.10
2023-01-28T04:11:58.720Z,92.20
2023-01-28T04:14:26.743Z,94.10
2023-01-28T04:16:55.307Z,94.30
2023-01-28T04:19:23.762Z,94.40
2023-01-28T04:21:53.994Z,94.80
2023-01-28T04:24:24.578Z,94.90
2023-01-28T04:26:54.298Z,94.50
2023-01-28T04:29:23.492Z,94.80
2023-01-28T04:31:51.511Z,95.00
2023-01-28T04:34:20.377Z,95.30
2023-01-28T04:36:48.380Z,95.00
2023-01-28T04:39:16.379Z,95.00
2023-01-28T04:41:45.849Z,95.30
2023-01-28T04:44:13.762Z,95.60
2023-01-28T04:46:41.844Z,95.50
2023-01-28T04:49:09.876Z,95.80
2023-01-28T04:51:37.891Z,95.30
2023-01-28T04:54:06.109Z,95.10
2023-01-28T04:56:34.138Z,95.70
2023-01-28T04:59:03.620Z,95.30
2023-01-28T05:01:31.521Z,95.50
2023-01-28T05:03:59.628Z,96.40
2023-01-28T05:06:27.677Z,95.70
2023-01-28T05:08:55.730Z,95.70
2023-01-28T05:11:23.754Z,95.90
2023-01-28T05:13:52.005Z,96.30
2023-01-28T05:16:21.385Z,96.50
2023-01-28T05:18:51.362Z,96.90
2023-01-28T05:21:19.532Z,97.20
2023-01-28T05:23:47.571Z,97.00
2023-01-28T05:26:15.913Z,96.90
2023-01-28T05:28:43.932Z,96.90
2023-01-28T05:31:12.791Z,96.80
2023-01-28T05:33:42.173Z,96.90
2023-01-28T05:36:10.310Z,97.30
2023-01-28T05:38:38.336Z,97.50
2023-01-28T05:41:06.541Z,97.30
2023-01-28T05:43:34.622Z,97.80
2023-01-28T05:46:02.718Z,98.20
2023-01-28T05:48:30.874Z,98.10
2023-01-28T05:51:00.393Z,98.70
2023-01-28T05:53:28.233Z,98.60
2023-01-28T05:55:56.227Z,97.80
2023-01-28T05:58:24.329Z,98.60
2023-01-28T06:00:55.433Z,97.80
2023-01-28T06:03:23.605Z,97.60
2023-01-28T06:05:51.630Z,98.30
2023-01-28T06:08:21.014Z,99.10
2023-01-28T06:10:49.026Z,99.70
2023-01-28T06:13:17.033Z,99.60
2023-01-28T06:15:45.098Z,99.70
2023-01-28T06:18:13.159Z,99.90
2023-01-28T06:20:41.214Z,99.90
2023-01-28T06:23:09.494Z,98.40
2023-01-28T06:25:38.998Z,98.70
2023-01-28T06:28:06.879Z,99.90
2023-01-28T06:30:34.891Z,99.90
2023-01-28T06:33:03.115Z,99.90
2023-01-28T06:35:31.155Z,99.90
2023-01-28T06:37:59.205Z,99.90
2023-01-28T06:40:27.229Z,99.90
2023-01-28T06:42:56.606Z,99.50
2023-01-28T06:45:24.616Z,99.90
2023-01-28T06:47:52.651Z,99.90
2023-01-28T06:50:20.817Z,99.90
2023-01-28T06:52:48.781Z,99.90
2023-01-28T06:55:17.156Z,99.90
2023-01-28T06:57:45.582Z,99.90
2023-01-28T07:00:16.880Z,99.90
2023-01-28T07:02:45.836Z,99.80
2023-01-28T07:05:13.858Z,99.90
2023-01-28T07:07:42.260Z,99.90
2023-01-28T07:10:11.681Z,99.90
2023-01-28T07:12:40.001Z,99.90
2023-01-28T07:15:10.893Z,99.90
2023-01-28T07:17:42.347Z,99.50
2023-01-28T07:20:13.548Z,99.80
2023-01-28T07:22:43.405Z,99.80
2023-01-28T07:25:12.849Z,99.50
2023-01-28T07:27:40.762Z,99.50
2023-01-28T07:30:10.098Z,98.80
2023-01-28T07:32:38.103Z,99.10
2023-01-28T07:35:08.791Z,99.30
2023-01-28T07:37:36.923Z,98.80
2023-01-28T07:40:05.709Z,98.70
2023-01-28T07:42:33.948Z,98.20
2023-01-28T07:45:01.973Z,96.60
2023-01-28T07:47:30.023Z,97.00
2023-01-28T07:49:58.085Z,97.00
2023-01-28T07:52:27.436Z,96.80
2023-01-28T07:54:55.514Z,97.10
2023-01-28T07:57:24.262Z,97.10
2023-01-28T07:59:52.384Z,95.90
2023-01-28T08:02:20.504Z,96.40
2023-01-28T08:04:48.603Z,96.20
2023-01-28T08:07:16.686Z,95.80
2023-01-28T08:09:46.048Z,96.60
2023-01-28T08:12:14.080Z,95.10
2023-01-28T08:14:42.107Z,95.30
2023-01-28T08:17:10.114Z,95.80
2023-01-28T08:19:38.116Z,95.50
2023-01-28T08:22:06.159Z,96.80
2023-01-28T08:24:34.192Z,97.10
2023-01-28T08:27:04.102Z,96.50
2023-01-28T08:29:32.171Z,96.10
2023-01-28T08:32:00.167Z,96.30
2023-01-28T08:34:28.171Z,95.30
2023-01-28T08:36:56.156Z,95.60
2023-01-28T08:39:24.148Z,94.90
2023-01-28T08:41:52.156Z,94.60
2023-01-28T08:44:21.473Z,94.60
2023-01-28T08:46:49.509Z,94.10
2023-01-28T08:49:17.539Z,94.00
2023-01-28T08:51:45.576Z,93.80
2023-01-28T08:54:13.557Z,94.00
2023-01-28T08:56:44.685Z,94.30
2023-01-28T08:59:12.935Z,93.90
2023-01-28T09:01:42.577Z,94.90
2023-01-28T09:04:10.870Z,95.90
2023-01-28T09:06:38.928Z,95.60
2023-01-28T09:09:06.941Z,94.90
2023-01-28T09:11:34.948Z,95.90
2023-01-28T09:14:02.964Z,95.60
2023-01-28T09:16:30.974Z,95.60
2023-01-28T09:19:00.391Z,95.50
2023-01-28T09:21:28.400Z,96.00
2023-01-28T09:23:58.333Z,95.30
2023-01-28T09:26:26.498Z,93.80
2023-01-28T09:28:54.491Z,93.10
2023-01-28T09:31:22.647Z,92.30
2023-01-28T09:36:50.109Z,92.10
2023-01-28T09:39:18.235Z,91.70
2023-01-28T09:41:55.476Z,91.10
2023-01-28T09:44:38.641Z,91.90
2023-01-28T09:47:17.382Z,91.70
2023-01-28T09:49:49.591Z,92.10
2023-01-28T09:52:22.648Z,92.10
2023-01-28T09:54:53.545Z,92.10
2023-01-28T09:57:24.444Z,92.30
2023-01-28T09:59:53.079Z,92.80
2023-01-28T10:02:38.507Z,92.40
2023-01-28T10:05:18.993Z,90.90
2023-01-28T10:07:57.401Z,91.90
2023-01-28T10:10:30.151Z,92.10
2023-01-28T10:13:15.280Z,88.40
2023-01-28T10:15:55.570Z,88.10
2023-01-28T10:18:31.853Z,84.50
2023-01-28T10:21:06.786Z,84.60
2023-01-28T10:23:46.847Z,81.90
2023-01-28T10:26:22.942Z,77.10
2023-01-28T10:28:55.992Z,77.40
2023-01-28T10:31:25.473Z,76.60
2023-01-28T10:33:53.301Z,74.60
2023-01-28T10:36:21.319Z,77.00
2023-01-28T10:38:50.782Z,75.20
2023-01-28T10:41:22.260Z,76.80
2023-01-28T10:43:51.324Z,67.60
2023-01-28T10:46:22.967Z,73.90
2023-01-28T10:48:59.128Z,73.70
2023-01-28T10:51:35.232Z,79.90
2023-01-28T10:54:15.327Z,82.60
2023-01-28T10:56:44.940Z,80.90
2023-01-28T10:59:21.859Z,78.40
2023-01-28T11:01:53.137Z,76.00
2023-01-28T11:04:25.437Z,75.10
2023-01-28T11:06:55.664Z,78.10
2023-01-28T11:09:27.871Z,79.50
2023-01-28T11:11:55.928Z,79.60
2023-01-28T11:14:26.079Z,84.20
2023-01-28T11:16:57.048Z,82.80
2023-01-28T11:19:32.394Z,82.00
2023-01-28T11:22:00.581Z,79.90
2023-01-28T11:24:33.126Z,72.20
2023-01-28T11:27:13.681Z,73.80
2023-01-28T11:29:42.167Z,75.50
2023-01-28T11:32:19.523Z,75.30
2023-01-28T11:34:52.799Z,77.70
2023-01-28T11:37:23.806Z,80.60
2023-01-28T11:40:19.125Z,81.80
2023-01-28T11:42:50.776Z,76.80
2023-01-28T11:45:19.762Z,80.90
2023-01-28T11:48:01.903Z,79.20
2023-01-28T11:50:40.739Z,77.50
2023-01-28T11:53:35.814Z,75.50
2023-01-28T11:56:31.646Z,75.90
2023-01-28T11:59:12.050Z,70.50
2023-01-28T12:01:48.682Z,62.40
2023-01-28T12:04:26.858Z,55.30
2023-01-28T12:07:09.189Z,52.10
2023-01-28T12:09:46.814Z,50.50
2023-01-28T12:12:30.790Z,46.00
2023-01-28T12:15:26.286Z,43.00
2023-01-28T12:18:10.883Z,41.70
2023-01-28T12:20:48.146Z,43.20
2023-01-28T12:23:31.090Z,45.40
2023-01-28T12:26:10.898Z,32.00
2023-01-28T12:29:03.783Z,37.70
2023-01-28T12:31:54.587Z,35.00
2023-01-28T12:34:49.387Z,37.50
2023-01-28T12:37:27.471Z,35.30
2023-01-28T12:40:07.150Z,35.20
2023-01-28T12:42:39.980Z,38.30
2023-01-28T12:45:18.391Z,37.00
2023-01-28T12:47:51.553Z,35.30
2023-01-28T12:50:23.953Z,40.80
2023-01-28T12:52:59.355Z,44.90
2023-01-28T12:55:40.891Z,51.40
2023-01-28T12:58:14.866Z,53.30
2023-01-28T13:00:49.660Z,57.80
2023-01-28T13:03:22.445Z,58.10
2023-01-28T13:05:54.936Z,56.70
2023-01-28T13:08:25.528Z,60.40
2023-01-28T13:10:55.043Z,59.40
2023-01-28T13:13:26.464Z,53.10
2023-01-28T13:15:55.891Z,48.60
2023-01-28T13:18:45.224Z,54.20
2023-01-28T13:21:40.107Z,56.90
2023-01-28T13:24:31.514Z,59.50
2023-01-28T13:26:59.783Z,55.20
2023-01-28T13:29:33.080Z,57.50
2023-01-28T13:32:04.791Z,54.80
2023-01-28T13:34:36.296Z,49.70
2023-01-28T13:37:22.660Z,49.70
2023-01-28T13:39:53.506Z,53.70
2023-01-28T13:42:27.692Z,48.80
2023-01-28T13:44:56.931Z,53.00
2023-01-28T13:47:31.854Z,45.70
2023-01-28T13:50:04.498Z,44.30
2023-01-28T13:52:36.127Z,44.00
2023-01-28T13:55:07.509Z,44.10
2023-01-28T13:58:03.775Z,40.60
2023-01-28T14:00:40.268Z,41.80
2023-01-28T14:06:54.146Z,44.30
2023-01-28T14:09:37.327Z,44.20
2023-01-28T14:12:37.574Z,46.70
2023-01-28T14:15:33.850Z,40.00
2023-01-28T14:18:02.430Z,46.00
2023-01-28T14:20:37.616Z,47.20
2023-01-28T14:23:15.032Z,45.20
2023-01-28T14:25:57.578Z,50.10
2023-01-28T14:28:36.637Z,50.00
2023-01-28T14:31:10.247Z,52.10
2023-01-28T14:33:39.005Z,55.20
2023-01-28T14:36:07.778Z,54.20
2023-01-28T14:38:40.979Z,57.00
2023-01-28T14:41:12.201Z,59.50
2023-01-28T14:43:42.581Z,60.80
2023-01-28T14:46:20.911Z,62.20
2023-01-28T14:48:58.247Z,64.90
2023-01-28T14:51:52.637Z,68.20
2023-01-28T14:54:36.149Z,70.10
2023-01-28T14:57:20.307Z,69.90
2023-01-28T14:59:52.157Z,69.20
2023-01-28T15:02:22.499Z,69.20
2023-01-28T15:04:51.229Z,66.90
2023-01-28T15:07:21.533Z,68.80
2023-01-28T15:10:00.170Z,70.60
2023-01-28T15:12:30.344Z,72.00
2023-01-28T15:15:00.091Z,74.40
2023-01-28T15:17:29.196Z,72.70
2023-01-28T15:19:58.999Z,72.00
2023-01-28T15:22:29.740Z,73.80
2023-01-28T15:24:57.968Z,75.60
2023-01-28T15:27:32.021Z,76.30
2023-01-28T15:30:02.479Z,76.50
2023-01-28T15:32:32.796Z,77.80
2023-01-28T15:35:01.586Z,77.70
2023-01-28T15:37:29.721Z,78.10
2023-01-28T15:40:05.956Z,77.20
2023-01-28T15:42:35.962Z,79.30
2023-01-28T15:45:04.525Z,79.50
2023-01-28T15:47:35.313Z,83.20
2023-01-28T15:50:06.860Z,84.60
2023-01-28T15:52:37.569Z,84.00
2023-01-28T15:55:07.255Z,83.10
2023-01-28T15:57:36.952Z,85.30
2023-01-28T16:00:15.547Z,84.60
2023-01-28T16:02:45.570Z,85.60
2023-01-28T16:05:29.439Z,85.30
2023-01-28T16:08:01.012Z,84.40
2023-01-28T16:10:30.877Z,84.70
2023-01-28T16:13:07.211Z,86.40
2023-01-28T16:15:38.331Z,83.60
2023-01-28T16:18:07.627Z,84.00
2023-01-28T16:20:35.712Z,85.70
2023-01-28T16:23:05.265Z,84.60
2023-01-28T16:25:33.883Z,86.80
2023-01-28T16:28:05.031Z,85.90
2023-01-28T16:30:33.217Z,86.90
2023-01-28T16:33:01.289Z,86.30
2023-01-28T16:35:47.190Z,85.40
2023-01-28T16:38:18.524Z,81.80
2023-01-28T16:40:47.456Z,81.80
2023-01-28T16:43:17.943Z,82.30
2023-01-28T16:45:47.011Z,83.20
2023-01-28T16:48:15.087Z,84.90
2023-01-28T16:50:44.157Z,87.70
2023-01-28T16:53:21.747Z,87.00
2023-01-28T16:55:51.820Z,85.00
2023-01-28T16:58:25.943Z,86.70
2023-01-28T17:00:54.537Z,88.70
2023-01-28T17:03:23.422Z,87.70
2023-01-28T17:05:51.512Z,88.80
2023-01-28T17:08:19.810Z,90.00
2023-01-28T17:10:53.001Z,87.50
2023-01-28T17:13:22.968Z,87.60
2023-01-28T17:15:51.008Z,89.10
2023-01-28T17:18:19.094Z,88.50
2023-01-28T17:20:47.160Z,89.10
2023-01-28T17:23:17.399Z,90.40
2023-01-28T17:25:45.711Z,88.70
2023-01-28T17:28:13.745Z,90.60
2023-01-28T17:30:43.546Z,90.70
2023-01-28T17:33:11.592Z,90.70
2023-01-28T17:35:39.624Z,90.40
2023-01-28T17:38:07.645Z,91.10
2023-01-28T17:40:35.722Z,91.50
2023-01-28T17:43:03.710Z,91.40
2023-01-28T17:45:32.249Z,91.40
2023-01-28T17:48:01.757Z,91.80
2023-01-28T17:50:29.626Z,91.00
2023-01-28T17:52:58.697Z,91.50
2023-01-28T17:55:27.177Z,92.10
2023-01-28T17:57:55.411Z,91.90
2023-01-28T18:00:23.819Z,92.20
2023-01-28T18:02:52.512Z,92.80
2023-01-28T18:05:22.309Z,92.60
2023-01-28T18:07:50.573Z,92.50
2023-01-28T18:10:19.192Z,93.20
2023-01-28T18:12:47.426Z,93.90
2023-01-28T18:15:15.740Z,94.30
2023-01-28T18:17:44.159Z,93.80
2023-01-28T18:20:12.706Z,93.80
2023-01-28T18:22:42.095Z,93.30
2023-01-28T18:25:11.975Z,93.00
2023-01-28T18:27:39.981Z,92.20
2023-01-28T18:30:09.223Z,91.90
2023-01-28T18:32:37.265Z,90.90
2023-01-28T18:35:06.506Z,92.60
2023-01-28T18:37:37.180Z,93.00
2023-01-28T18:40:07.500Z,93.50
2023-01-28T18:42:37.484Z,93.90
2023-01-28T18:45:06.351Z,93.20
2023-01-28T18:47:34.355Z,92.90
2023-01-28T18:50:02.384Z,93.10
2023-01-28T18:52:30.454Z,93.20
2023-01-28T18:54:58.462Z,92.80
2023-01-28T18:57:27.884Z,92.80
2023-01-28T18:59:56.242Z,92.30
2023-01-28T19:02:24.270Z,91.80
2023-01-28T19:04:52.362Z,91.40
2023-01-28T19:07:20.354Z,91.70
2023-01-28T19:09:48.504Z,91.10
2023-01-28T19:12:16.574Z,90.60
2023-01-28T19:14:45.971Z,91.60
2023-01-28T19:17:14.024Z,91.80
2023-01-28T19:19:42.037Z,91.60
2023-01-28T19:22:10.335Z,92.90
2023-01-28T19:24:38.648Z,93.20
2023-01-28T19:27:06.684Z,92.70
2023-01-28T19:29:34.795Z,92.50
2023-01-28T19:32:04.873Z,93.10
2023-01-28T19:34:32.985Z,92.50
2023-01-28T19:37:01.015Z,90.30
2023-01-28T19:39:29.032Z,90.80
2023-01-28T19:41:57.337Z,90.40
2023-01-28T19:44:26.092Z,90.60
2023-01-28T19:46:54.156Z,91.10
2023-01-28T19:49:23.543Z,90.10
2023-01-28T19:51:51.899Z,91.20
2023-01-28T19:54:19.940Z,91.30
2023-01-28T19:56:48.016Z,93.00
2023-01-28T19:59:16.143Z,92.90
2023-01-28T20:01:44.266Z,93.00
2023-01-28T20:04:12.516Z,93.20
2023-01-28T20:06:42.034Z,93.00
2023-01-28T20:09:14.922Z,92.80
2023-01-28T20:11:43.011Z,93.00
2023-01-28T20:14:11.174Z,93.00
2023-01-28T20:16:39.283Z,93.20
2023-01-28T20:19:09.715Z,91.60
2023-01-28T20:21:38.087Z,91.30
2023-01-28T20:24:08.229Z,90.90
2023-01-28T20:26:38.449Z,91.80
2023-01-28T20:29:08.380Z,92.30
2023-01-28T20:31:37.041Z,91.50
2023-01-28T20:34:05.361Z,90.00
2023-01-28T20:36:33.471Z,88.80
2023-01-28T20:39:01.527Z,90.30
2023-01-28T20:41:31.134Z,90.70
2023-01-28T20:43:59.137Z,90.80
2023-01-28T20:46:29.422Z,91.10
2023-01-28T20:48:59.681Z,90.70
2023-01-28T20:51:29.395Z,90.00
2023-01-28T20:53:58.526Z,90.30
2023-01-28T20:56:27.593Z,87.90
2023-01-28T20:58:59.154Z,89.80
2023-01-28T21:01:28.946Z,87.10
2023-01-28T21:03:57.534Z,87.00
2023-01-28T21:06:26.198Z,88.40
2023-01-28T21:08:54.497Z,84.60
2023-01-28T21:11:24.180Z,84.40
2023-01-28T21:13:52.398Z,82.10
2023-01-28T21:16:21.994Z,79.60
2023-01-28T21:18:50.249Z,78.00
2023-01-28T21:21:20.680Z,80.90
2023-01-28T21:23:48.763Z,79.60
2023-01-28T21:26:17.321Z,82.40
2023-01-28T21:28:45.416Z,86.40
2023-01-28T21:31:16.876Z,87.10
2023-01-28T21:33:49.469Z,86.90
2023-01-28T21:36:18.309Z,85.10
2023-01-28T21:38:46.585Z,85.10
2023-01-28T21:41:14.591Z,87.50
2023-01-28T21:43:42.628Z,88.00
2023-01-28T21:46:12.319Z,89.00
2023-01-28T21:48:40.319Z,89.00
2023-01-28T21:51:27.005Z,88.50
2023-01-28T21:53:55.369Z,90.10
2023-01-28T21:56:23.651Z,88.20
2023-01-28T21:59:09.198Z,87.70
2023-01-28T22:01:37.322Z,86.90
2023-01-28T22:04:06.091Z,88.20
2023-01-28T22:06:35.462Z,84.90
2023-01-28T22:09:04.257Z,81.50
2023-01-28T22:11:32.505Z,77.90
2023-01-28T22:14:00.604Z,73.00
2023-01-28T22:16:28.604Z,77.30
2023-01-28T22:18:56.618Z,80.50
2023-01-28T22:21:24.715Z,81.10
2023-01-28T22:23:54.123Z,82.30
2023-01-28T22:26:21.993Z,85.00
2023-01-28T22:28:50.030Z,83.20
2023-01-28T22:31:18.529Z,86.00
2023-01-28T22:33:47.328Z,84.70
2023-01-28T22:36:16.617Z,83.70
2023-01-28T22:38:45.779Z,83.70
2023-01-28T22:41:18.987Z,84.90
2023-01-28T22:43:47.765Z,85.70
2023-01-28T22:46:16.443Z,85.10
2023-01-28T22:48:45.146Z,85.30
2023-01-28T22:51:17.024Z,84.90
2023-01-28T22:53:46.392Z,83.70
2023-01-28T22:56:17.129Z,81.80
2023-01-28T22:58:45.441Z,77.70
2023-01-28T23:01:15.582Z,78.10
2023-01-28T23:03:47.179Z,80.00
2023-01-28T23:06:16.565Z,81.00
2023-01-28T23:08:45.045Z,83.70
2023-01-28T23:11:15.896Z,84.30
2023-01-28T23:14:03.811Z,84.30
2023-01-28T23:16:49.616Z,81.10
2023-01-28T23:19:35.649Z,81.90
2023-01-28T23:22:21.435Z,83.80
2023-01-28T23:24:49.527Z,84.90
2023-01-28T23:27:17.529Z,85.40
2023-01-28T23:29:46.871Z,81.40
2023-01-28T23:32:14.969Z,79.70
2023-01-28T23:34:44.474Z,83.00
2023-01-28T23:37:13.847Z,81.60
2023-01-28T23:39:42.123Z,83.80
2023-01-28T23:42:11.839Z,83.30
2023-01-28T23:44:39.910Z,79.70
2023-01-28T23:47:09.895Z,82.00
2023-01-28T23:49:38.325Z,82.80
2023-01-28T23:52:07.687Z,77.50
2023-01-28T23:54:36.356Z,75.70
2023-01-28T23:57:05.162Z,75.60
2023-01-28T23:59:33.314Z,75.60
